createdAt,value
2023-02-22T00:00:50.924Z,2.04
2023-02-22T00:03:07.417Z,2.00
2023-02-22T00:05:25.674Z,1.95
2023-02-22T00:07:42.074Z,1.94
2023-02-22T00:09:58.359Z,1.93
2023-02-22T00:12:14.765Z,1.90
2023-02-22T00:14:31.258Z,1.85
2023-02-22T00:16:47.652Z,1.81
2023-02-22T00:19:03.943Z,1.78
2023-02-22T00:21:20.230Z,1.74
2023-02-22T00:23:36.579Z,1.74
2023-02-22T00:25:52.858Z,1.72
2023-02-22T00:28:09.149Z,1.71
2023-02-22T00:30:25.471Z,1.69
2023-02-22T00:32:41.792Z,1.67
2023-02-22T00:34:58.171Z,1.64
2023-02-22T00:37:14.470Z,1.62
2023-02-22T00:39:30.816Z,1.61
2023-02-22T00:41:47.146Z,1.62
2023-02-22T00:44:03.539Z,1.57
2023-02-22T00:46:19.849Z,1.53
2023-02-22T00:48:36.164Z,1.50
2023-02-22T00:50:52.430Z,1.49
2023-02-22T00:53:08.729Z,1.48
2023-02-22T00:55:25.013Z,1.48
2023-02-22T00:57:41.317Z,1.47
2023-02-22T00:59:57.587Z,1.45
2023-02-22T01:02:13.999Z,1.44
2023-02-22T01:04:30.371Z,1.40
2023-02-22T01:06:46.678Z,1.39
2023-02-22T01:09:02.968Z,1.38
2023-02-22T01:11:19.350Z,1.36
2023-02-22T01:13:35.644Z,1.32
2023-02-22T01:15:51.956Z,1.30
2023-02-22T01:18:08.262Z,1.28
2023-02-22T01:20:24.599Z,1.25
2023-02-22T01:22:40.878Z,1.22
2023-02-22T01:24:57.179Z,1.22
2023-02-22T01:27:13.560Z,1.22
2023-02-22T01:29:29.865Z,1.25
2023-02-22T01:31:46.164Z,1.23
2023-02-22T01:34:02.501Z,1.20
2023-02-22T01:36:18.809Z,1.16
2023-02-22T01:38:35.160Z,1.16
2023-02-22T01:40:51.431Z,1.12
2023-02-22T01:43:07.720Z,1.08
2023-02-22T01:45:24.028Z,1.08
2023-02-22T01:47:40.381Z,1.10
2023-02-22T01:49:56.664Z,1.11
2023-02-22T01:52:12.971Z,1.10
2023-02-22T01:54:29.210Z,1.10
2023-02-22T01:56:45.517Z,1.08
2023-02-22T01:59:01.805Z,1.08
2023-02-22T02:01:18.496Z,1.09
2023-02-22T02:03:35.016Z,1.06
2023-02-22T02:05:51.374Z,1.04
2023-02-22T02:08:07.638Z,1.02
2023-02-22T02:10:23.931Z,1.00
2023-02-22T02:12:40.236Z,0.99
2023-02-22T02:14:56.566Z,0.98
2023-02-22T02:17:12.856Z,0.98
2023-02-22T02:19:29.137Z,0.96
2023-02-22T02:21:45.410Z,0.93
2023-02-22T02:24:01.719Z,0.92
2023-02-22T02:26:18.020Z,0.95
2023-02-22T02:28:34.337Z,0.93
2023-02-22T02:30:50.641Z,0.94
2023-02-22T02:33:06.964Z,0.94
2023-02-22T02:35:23.250Z,0.93
2023-02-22T02:37:39.527Z,0.94
2023-02-22T02:39:55.822Z,0.93
2023-02-22T02:42:12.129Z,0.93
2023-02-22T02:44:28.415Z,0.93
2023-02-22T02:46:44.675Z,0.91
2023-02-22T02:49:01.160Z,0.91
2023-02-22T02:51:17.642Z,0.92
2023-02-22T02:53:34.105Z,0.89
2023-02-22T02:55:50.369Z,0.87
2023-02-22T02:58:06.769Z,0.85
2023-02-22T03:00:23.102Z,0.84
2023-02-22T03:02:39.568Z,0.82
2023-02-22T03:04:55.881Z,0.81
2023-02-22T03:07:12.188Z,0.81
2023-02-22T03:09:28.616Z,0.78
2023-02-22T03:11:44.855Z,0.79
2023-02-22T03:14:01.167Z,0.78
2023-02-22T03:16:17.468Z,0.78
2023-02-22T03:18:33.824Z,0.80
2023-02-22T03:20:50.092Z,0.78
2023-02-22T03:23:06.359Z,0.77
2023-02-22T03:25:22.648Z,0.75
2023-02-22T03:27:38.957Z,0.73
2023-02-22T03:29:55.231Z,0.71
2023-02-22T03:32:11.564Z,0.70
2023-02-22T03:34:28.006Z,0.71
2023-02-22T03:36:44.281Z,0.68
2023-02-22T03:39:00.515Z,0.66
2023-02-22T03:41:17.026Z,0.67
2023-02-22T03:43:33.521Z,0.65
2023-02-22T03:45:49.849Z,0.65
2023-02-22T03:48:06.137Z,0.63
2023-02-22T03:50:22.391Z,0.61
2023-02-22T03:52:38.653Z,0.62
2023-02-22T03:54:55.054Z,0.63
2023-02-22T03:57:11.341Z,0.60
2023-02-22T03:59:27.779Z,0.59
2023-02-22T04:01:44.112Z,0.60
2023-02-22T04:04:00.441Z,0.61
2023-02-22T04:06:16.684Z,0.57
2023-02-22T04:08:32.963Z,0.56
2023-02-22T04:10:49.215Z,0.52
2023-02-22T04:13:05.534Z,0.50
2023-02-22T04:15:21.789Z,0.51
2023-02-22T04:17:38.041Z,0.50
2023-02-22T04:19:54.344Z,0.49
2023-02-22T04:22:10.650Z,0.48
2023-02-22T04:24:27.738Z,0.45
2023-02-22T04:26:45.324Z,0.44
2023-02-22T04:29:01.584Z,0.41
2023-02-22T04:31:18.138Z,0.41
2023-02-22T04:33:34.612Z,0.43
2023-02-22T04:35:50.888Z,0.44
2023-02-22T04:38:07.164Z,0.43
2023-02-22T04:40:23.477Z,0.44
2023-02-22T04:42:39.722Z,0.43
2023-02-22T04:44:55.992Z,0.40
2023-02-22T04:47:12.260Z,0.38
2023-02-22T04:49:28.533Z,0.37
2023-02-22T04:51:44.789Z,0.37
2023-02-22T04:54:01.056Z,0.36
2023-02-22T04:56:17.339Z,0.35
2023-02-22T04:58:33.800Z,0.32
2023-02-22T05:00:50.099Z,0.31
2023-02-22T05:03:06.407Z,0.31
2023-02-22T05:05:22.667Z,0.29
2023-02-22T05:07:38.948Z,0.29
2023-02-22T05:09:55.200Z,0.29
2023-02-22T05:12:11.474Z,0.25
2023-02-22T05:14:27.734Z,0.25
2023-02-22T05:16:44.052Z,0.24
2023-02-22T05:19:00.366Z,0.22
2023-02-22T05:21:16.870Z,0.22
2023-02-22T05:23:33.303Z,0.19
2023-02-22T05:25:49.596Z,0.18
2023-02-22T05:28:05.906Z,0.17
2023-02-22T05:30:22.170Z,0.16
2023-02-22T05:32:38.461Z,0.13
2023-02-22T05:34:54.753Z,0.11
2023-02-22T05:37:11.126Z,0.12
2023-02-22T05:39:27.395Z,0.08
2023-02-22T05:41:43.659Z,0.09
2023-02-22T05:43:59.986Z,0.07
2023-02-22T05:46:16.266Z,0.04
2023-02-22T05:48:32.557Z,0.02
2023-02-22T05:50:48.818Z,0.02
2023-02-22T05:53:05.121Z,-0.01
2023-02-22T05:55:21.414Z,0.00
2023-02-22T05:57:37.720Z,-0.01
2023-02-22T05:59:54.019Z,-0.02
2023-02-22T06:02:10.374Z,-0.03
2023-02-22T06:04:26.656Z,-0.05
2023-02-22T06:06:42.914Z,-0.07
2023-02-22T06:08:59.184Z,-0.09
2023-02-22T06:11:15.752Z,-0.08
2023-02-22T06:13:32.304Z,-0.07
2023-02-22T06:15:48.590Z,-0.06
2023-02-22T06:18:04.873Z,-0.08
2023-02-22T06:20:21.173Z,-0.08
2023-02-22T06:22:37.429Z,-0.07
2023-02-22T06:24:55.098Z,-0.09
2023-02-22T06:27:11.436Z,-0.09
2023-02-22T06:29:27.751Z,-0.07
2023-02-22T06:31:44.102Z,-0.05
2023-02-22T06:34:00.398Z,-0.06
2023-02-22T06:36:16.653Z,-0.08
2023-02-22T06:38:32.975Z,-0.11
2023-02-22T06:40:49.275Z,-0.10
2023-02-22T06:43:05.540Z,-0.11
2023-02-22T06:45:21.898Z,-0.09
2023-02-22T06:47:38.289Z,-0.06
2023-02-22T06:49:54.565Z,-0.06
2023-02-22T06:52:10.987Z,-0.08
2023-02-22T06:54:27.235Z,-0.06
2023-02-22T06:56:43.517Z,-0.06
2023-02-22T06:59:02.481Z,-0.05
2023-02-22T07:01:19.216Z,-0.02
2023-02-22T07:03:35.742Z,0.00
2023-02-22T07:05:52.126Z,0.00
2023-02-22T07:08:08.502Z,0.03
2023-02-22T07:10:24.793Z,0.05
2023-02-22T07:12:41.059Z,0.08
2023-02-22T07:14:57.415Z,0.09
2023-02-22T07:17:13.681Z,0.11
2023-02-22T07:19:29.958Z,0.16
2023-02-22T07:21:46.216Z,0.21
2023-02-22T07:24:04.567Z,0.26
2023-02-22T07:26:21.710Z,0.34
2023-02-22T07:28:37.993Z,0.36
2023-02-22T07:30:54.286Z,0.38
2023-02-22T07:33:10.656Z,0.43
2023-02-22T07:35:26.957Z,0.49
2023-02-22T07:37:43.224Z,0.57
2023-02-22T07:39:59.591Z,0.61
2023-02-22T07:42:15.916Z,0.63
2023-02-22T07:44:32.202Z,0.63
2023-02-22T07:46:48.462Z,0.65
2023-02-22T07:49:04.727Z,0.67
2023-02-22T07:51:21.016Z,0.70
2023-02-22T07:53:37.286Z,0.71
2023-02-22T07:55:53.542Z,0.76
2023-02-22T07:58:09.801Z,0.76
2023-02-22T08:00:26.149Z,0.81
2023-02-22T08:02:42.488Z,0.84
2023-02-22T08:04:58.789Z,0.86
2023-02-22T08:07:15.216Z,0.87
2023-02-22T08:09:31.538Z,0.86
2023-02-22T08:11:47.825Z,0.89
2023-02-22T08:14:04.098Z,0.92
2023-02-22T08:16:20.376Z,0.96
2023-02-22T08:18:36.977Z,0.99
2023-02-22T08:20:53.261Z,1.02
2023-02-22T08:23:09.538Z,1.07
2023-02-22T08:25:25.769Z,1.14
2023-02-22T08:27:42.028Z,1.20
2023-02-22T08:29:58.276Z,1.30
2023-02-22T08:32:14.580Z,1.42
2023-02-22T08:34:30.965Z,1.59
2023-02-22T08:36:47.428Z,1.72
2023-02-22T08:39:03.720Z,1.82
2023-02-22T08:41:20.043Z,1.92
2023-02-22T08:43:36.348Z,2.04
2023-02-22T08:45:52.899Z,2.15
2023-02-22T08:48:09.905Z,2.27
2023-02-22T08:50:26.182Z,2.36
2023-02-22T08:52:42.499Z,2.47
2023-02-22T08:54:58.934Z,2.59
2023-02-22T08:57:15.203Z,2.74
2023-02-22T08:59:31.481Z,2.91
2023-02-22T09:01:47.744Z,3.03
2023-02-22T09:04:04.031Z,3.18
2023-02-22T09:06:20.391Z,3.27
2023-02-22T09:08:36.701Z,3.38
2023-02-22T09:10:53.067Z,3.48
2023-02-22T09:13:09.403Z,3.58
2023-02-22T09:15:25.688Z,3.71
2023-02-22T09:17:41.975Z,3.85
2023-02-22T09:19:58.249Z,4.04
2023-02-22T09:22:14.558Z,4.15
2023-02-22T09:24:30.800Z,4.28
2023-02-22T09:26:47.057Z,4.37
2023-02-22T09:29:03.329Z,4.51
2023-02-22T09:31:20.194Z,4.66
2023-02-22T09:33:36.786Z,4.79
2023-02-22T09:35:53.048Z,4.98
2023-02-22T09:38:09.338Z,5.11
2023-02-22T09:40:25.634Z,5.33
2023-02-22T09:42:42.097Z,5.53
2023-02-22T09:44:58.417Z,5.72
2023-02-22T09:47:14.700Z,5.91
2023-02-22T09:49:31.066Z,6.12
2023-02-22T09:51:47.313Z,6.29
2023-02-22T09:54:03.565Z,6.51
2023-02-22T09:56:20.056Z,6.58
2023-02-22T09:58:36.552Z,6.71
2023-02-22T10:00:52.902Z,6.79
2023-02-22T10:03:09.153Z,6.91
2023-02-22T10:05:25.461Z,7.03
2023-02-22T10:07:41.777Z,7.15
2023-02-22T10:09:58.038Z,7.29
2023-02-22T10:12:14.343Z,7.36
2023-02-22T10:14:30.620Z,7.47
2023-02-22T10:16:46.980Z,7.55
2023-02-22T10:19:03.283Z,7.63
2023-02-22T10:21:19.573Z,7.78
2023-02-22T10:23:35.908Z,7.84
2023-02-22T10:25:52.260Z,8.07
2023-02-22T10:28:08.504Z,8.19
2023-02-22T10:30:25.776Z,8.38
2023-02-22T10:32:42.207Z,8.60
2023-02-22T10:34:58.496Z,8.81
2023-02-22T10:37:14.818Z,9.01
2023-02-22T10:39:31.179Z,9.18
2023-02-22T10:41:47.500Z,9.40
2023-02-22T10:44:03.833Z,9.65
2023-02-22T10:46:20.594Z,9.79
2023-02-22T10:48:36.961Z,10.00
2023-02-22T10:50:53.269Z,10.18
2023-02-22T10:53:09.578Z,10.28
2023-02-22T10:55:25.878Z,10.43
2023-02-22T10:57:42.165Z,10.56
2023-02-22T10:59:58.457Z,10.65
2023-02-22T11:02:14.947Z,10.82
2023-02-22T11:04:31.296Z,10.98
2023-02-22T11:06:47.553Z,11.10
2023-02-22T11:09:03.841Z,11.07
2023-02-22T11:11:20.147Z,11.20
2023-02-22T11:13:36.442Z,11.29
2023-02-22T11:15:52.702Z,11.40
2023-02-22T11:18:08.992Z,11.46
2023-02-22T11:20:25.326Z,11.56
2023-02-22T11:22:41.659Z,11.70
2023-02-22T11:24:57.932Z,11.84
2023-02-22T11:27:14.210Z,11.89
2023-02-22T11:29:30.481Z,11.96
2023-02-22T11:31:46.770Z,12.05
2023-02-22T11:34:03.270Z,12.23
2023-02-22T11:36:19.531Z,12.39
2023-02-22T11:38:35.846Z,12.50
2023-02-22T11:40:52.102Z,12.57
2023-02-22T11:43:08.392Z,12.69
2023-02-22T11:45:24.651Z,12.76
2023-02-22T11:47:40.991Z,12.76
2023-02-22T11:49:57.237Z,12.85
2023-02-22T11:52:13.515Z,12.93
2023-02-22T11:54:29.764Z,12.81
2023-02-22T11:56:46.105Z,12.73
2023-02-22T11:59:02.520Z,12.75
2023-02-22T12:01:18.780Z,12.67
2023-02-22T12:03:35.105Z,12.73
2023-02-22T12:05:51.457Z,12.78
2023-02-22T12:08:18.930Z,12.73
2023-02-22T12:10:36.192Z,12.79
2023-02-22T12:12:52.466Z,12.94
2023-02-22T12:15:08.776Z,13.01
2023-02-22T12:17:25.048Z,13.05
2023-02-22T12:19:41.353Z,13.10
2023-02-22T12:21:57.636Z,13.15
2023-02-22T12:24:13.974Z,13.12
2023-02-22T12:26:30.257Z,13.01
2023-02-22T12:28:46.729Z,12.91
2023-02-22T12:31:03.034Z,12.92
2023-02-22T12:33:19.408Z,12.80
2023-02-22T12:35:35.724Z,12.73
2023-02-22T12:37:52.011Z,12.76
2023-02-22T12:40:08.388Z,12.83
2023-02-22T12:42:24.831Z,12.84
2023-02-22T12:44:41.125Z,12.85
2023-02-22T12:46:57.400Z,12.93
2023-02-22T12:49:13.653Z,13.04
2023-02-22T12:51:29.988Z,13.18
2023-02-22T12:53:46.272Z,13.25
2023-02-22T12:56:02.535Z,13.29
2023-02-22T12:58:19.103Z,13.36
2023-02-22T13:00:35.440Z,13.50
2023-02-22T13:02:51.904Z,13.48
2023-02-22T13:05:08.238Z,13.48
2023-02-22T13:07:24.617Z,13.47
2023-02-22T13:09:40.921Z,13.48
2023-02-22T13:11:57.212Z,13.48
2023-02-22T13:14:13.494Z,13.46
2023-02-22T13:16:29.829Z,13.45
2023-02-22T13:18:46.181Z,13.43
2023-02-22T13:21:02.506Z,13.48
2023-02-22T13:23:18.784Z,13.41
2023-02-22T13:25:35.074Z,13.42
2023-02-22T13:27:51.405Z,13.42
2023-02-22T13:30:07.690Z,13.44
2023-02-22T13:32:24.228Z,13.48
2023-02-22T13:34:40.576Z,13.45
2023-02-22T13:36:56.862Z,13.47
2023-02-22T13:39:13.120Z,13.52
2023-02-22T13:41:29.370Z,13.40
2023-02-22T13:43:45.737Z,13.39
2023-02-22T13:46:02.135Z,13.52
2023-02-22T13:48:18.446Z,13.60
2023-02-22T13:50:34.750Z,13.40
2023-02-22T13:52:51.048Z,13.46
2023-02-22T13:55:07.329Z,13.35
2023-02-22T13:57:23.618Z,13.32
2023-02-22T13:59:39.870Z,13.29
2023-02-22T14:01:56.200Z,13.29
2023-02-22T14:04:12.601Z,13.14
2023-02-22T14:06:28.857Z,13.16
2023-02-22T14:08:45.111Z,13.12
2023-02-22T14:11:01.384Z,13.11
2023-02-22T14:13:17.719Z,13.04
2023-02-22T14:15:34.085Z,12.93
2023-02-22T14:17:50.383Z,12.83
2023-02-22T14:20:06.701Z,12.78
2023-02-22T14:22:23.004Z,12.73
2023-02-22T14:24:39.256Z,12.67
2023-02-22T14:26:55.538Z,12.62
2023-02-22T14:29:11.790Z,12.59
2023-02-22T14:31:37.272Z,12.56
2023-02-22T14:33:53.770Z,12.52
2023-02-22T14:36:10.036Z,12.49
2023-02-22T14:38:26.296Z,12.49
2023-02-22T14:40:42.591Z,12.46
2023-02-22T14:42:58.865Z,12.44
2023-02-22T14:45:15.136Z,12.55
2023-02-22T14:47:31.431Z,12.47
2023-02-22T14:49:47.758Z,12.43
2023-02-22T14:52:04.019Z,12.43
2023-02-22T14:54:20.268Z,12.40
2023-02-22T14:56:36.572Z,12.33
2023-02-22T14:58:52.875Z,12.30
2023-02-22T15:01:09.167Z,12.27
2023-02-22T15:03:25.445Z,12.38
2023-02-22T15:05:41.711Z,12.35
2023-02-22T15:07:58.034Z,12.29
2023-02-22T15:10:14.335Z,12.21
2023-02-22T15:12:30.652Z,12.17
2023-02-22T15:14:46.958Z,12.28
2023-02-22T15:17:03.250Z,12.23
2023-02-22T15:19:21.026Z,12.20
2023-02-22T15:21:37.312Z,12.11
2023-02-22T15:23:53.579Z,12.12
2023-02-22T15:26:09.978Z,12.09
2023-02-22T15:28:26.287Z,12.08
2023-02-22T15:30:42.613Z,12.07
2023-02-22T15:33:04.467Z,12.05
2023-02-22T15:35:21.153Z,12.04
2023-02-22T15:37:37.418Z,12.05
2023-02-22T15:39:53.674Z,12.07
2023-02-22T15:42:09.943Z,12.07
2023-02-22T15:44:26.258Z,12.04
2023-02-22T15:46:42.507Z,11.99
2023-02-22T15:48:58.811Z,11.94
2023-02-22T15:51:15.500Z,11.88
2023-02-22T15:53:32.058Z,11.84
2023-02-22T15:55:48.342Z,11.83
2023-02-22T15:58:04.622Z,11.79
2023-02-22T16:00:20.899Z,11.78
2023-02-22T16:02:37.251Z,11.87
2023-02-22T16:04:59.620Z,11.84
2023-02-22T16:07:16.242Z,11.84
2023-02-22T16:09:32.738Z,11.79
2023-02-22T16:11:49.061Z,11.71
2023-02-22T16:14:05.388Z,11.70
2023-02-22T16:16:21.707Z,11.70
2023-02-22T16:18:37.989Z,11.65
2023-02-22T16:20:54.305Z,11.61
2023-02-22T16:23:10.616Z,11.55
2023-02-22T16:25:26.911Z,11.61
2023-02-22T16:27:43.399Z,11.60
2023-02-22T16:29:59.795Z,11.61
2023-02-22T16:32:16.161Z,11.59
2023-02-22T16:34:32.477Z,11.52
2023-02-22T16:36:48.724Z,11.49
2023-02-22T16:39:05.062Z,11.44
2023-02-22T16:41:21.481Z,11.41
2023-02-22T16:43:37.851Z,11.40
2023-02-22T16:45:54.228Z,11.34
2023-02-22T16:48:10.539Z,11.32
2023-02-22T16:50:26.826Z,11.25
2023-02-22T16:52:43.075Z,11.24
2023-02-22T16:54:59.377Z,11.21
2023-02-22T16:57:15.699Z,11.16
2023-02-22T16:59:32.029Z,11.14
2023-02-22T17:01:48.335Z,11.15
2023-02-22T17:04:04.617Z,11.14
2023-02-22T17:06:20.932Z,11.10
2023-02-22T17:08:37.173Z,11.07
2023-02-22T17:10:53.453Z,11.02
2023-02-22T17:13:21.892Z,10.99
2023-02-22T17:15:40.058Z,10.96
2023-02-22T17:17:56.386Z,10.97
2023-02-22T17:20:12.678Z,10.94
2023-02-22T17:22:28.939Z,10.89
2023-02-22T17:24:45.388Z,10.86
2023-02-22T17:27:01.667Z,10.82
2023-02-22T17:29:17.949Z,10.76
2023-02-22T17:31:34.263Z,10.69
2023-02-22T17:33:50.605Z,10.65
2023-02-22T17:36:06.938Z,10.58
2023-02-22T17:38:23.230Z,10.52
2023-02-22T17:40:39.531Z,10.46
2023-02-22T17:42:55.890Z,10.42
2023-02-22T17:45:12.140Z,10.38
2023-02-22T17:47:28.436Z,10.34
2023-02-22T17:49:44.762Z,10.31
2023-02-22T17:52:01.203Z,10.27
2023-02-22T17:54:17.519Z,10.25
2023-02-22T17:56:33.775Z,10.21
2023-02-22T17:58:50.142Z,10.20
2023-02-22T18:01:06.946Z,10.18
2023-02-22T18:03:23.598Z,10.13
2023-02-22T18:05:40.226Z,10.11
2023-02-22T18:07:56.515Z,10.07
2023-02-22T18:10:13.290Z,10.01
2023-02-22T18:12:29.748Z,9.96
2023-02-22T18:14:46.515Z,9.92
2023-02-22T18:17:02.966Z,9.89
2023-02-22T18:19:22.090Z,9.86
2023-02-22T18:21:39.830Z,9.83
2023-02-22T18:23:56.281Z,9.80
2023-02-22T18:26:12.700Z,9.76
2023-02-22T18:28:29.228Z,9.77
2023-02-22T18:30:45.567Z,9.76
2023-02-22T18:33:02.267Z,9.72
2023-02-22T18:35:18.730Z,9.68
2023-02-22T18:37:35.487Z,9.63
2023-02-22T18:39:52.197Z,9.62
2023-02-22T18:42:08.868Z,9.60
2023-02-22T18:44:25.176Z,9.56
2023-02-22T18:46:41.632Z,9.52
2023-02-22T18:48:58.013Z,9.51
2023-02-22T18:51:14.620Z,9.48
2023-02-22T18:53:31.054Z,9.46
2023-02-22T18:55:47.767Z,9.44
2023-02-22T18:58:04.225Z,9.43
2023-02-22T19:00:20.571Z,9.42
2023-02-22T19:02:37.016Z,9.38
2023-02-22T19:04:53.732Z,9.37
2023-02-22T19:07:10.066Z,9.37
2023-02-22T19:09:26.480Z,9.33
2023-02-22T19:11:42.809Z,9.30
2023-02-22T19:13:59.528Z,9.30
2023-02-22T19:16:16.126Z,9.28
2023-02-22T19:18:32.905Z,9.24
2023-02-22T19:20:49.802Z,9.19
2023-02-22T19:23:06.514Z,9.16
2023-02-22T19:25:22.925Z,9.15
2023-02-22T19:27:39.347Z,9.12
2023-02-22T19:29:55.658Z,9.09
2023-02-22T19:32:12.346Z,9.08
2023-02-22T19:34:28.728Z,9.04
2023-02-22T19:36:45.170Z,9.03
2023-02-22T19:39:01.665Z,9.05
2023-02-22T19:41:18.539Z,9.00
2023-02-22T19:43:35.157Z,8.97
2023-02-22T19:45:51.918Z,8.98
2023-02-22T19:48:08.246Z,8.94
2023-02-22T19:50:24.884Z,8.92
2023-02-22T19:52:41.201Z,8.89
2023-02-22T19:54:57.609Z,8.86
2023-02-22T19:57:14.051Z,8.84
2023-02-22T19:59:30.427Z,8.84
2023-02-22T20:01:46.803Z,8.81
2023-02-22T20:04:03.608Z,8.82
2023-02-22T20:06:20.295Z,8.81
2023-02-22T20:08:36.723Z,8.79
2023-02-22T20:10:53.082Z,8.82
2023-02-22T20:13:09.510Z,8.80
2023-02-22T20:15:25.942Z,8.80
2023-02-22T20:17:42.602Z,8.76
2023-02-22T20:19:59.289Z,8.76
2023-02-22T20:22:15.662Z,8.76
2023-02-22T20:24:32.343Z,8.76
2023-02-22T20:26:49.023Z,8.75
2023-02-22T20:29:05.810Z,8.74
2023-02-22T20:31:22.330Z,8.73
2023-02-22T20:33:38.857Z,8.72
2023-02-22T20:35:55.605Z,8.71
2023-02-22T20:38:12.031Z,8.70
2023-02-22T20:40:28.468Z,8.68
2023-02-22T20:42:44.815Z,8.69
2023-02-22T20:45:01.245Z,8.72
2023-02-22T20:47:17.720Z,8.72
2023-02-22T20:49:34.019Z,8.70
2023-02-22T20:51:50.810Z,8.67
2023-02-22T20:54:07.561Z,8.64
2023-02-22T20:56:23.969Z,8.60
2023-02-22T20:58:40.259Z,8.58
2023-02-22T21:00:56.899Z,8.61
2023-02-22T21:03:13.371Z,8.59
2023-02-22T21:05:29.733Z,8.58
2023-02-22T21:07:46.661Z,8.60
2023-02-22T21:10:03.512Z,8.57
2023-02-22T21:12:20.336Z,8.56
2023-02-22T21:14:36.721Z,8.52
2023-02-22T21:16:53.140Z,8.51
2023-02-22T21:19:09.793Z,8.49
2023-02-22T21:21:26.744Z,8.52
2023-02-22T21:23:43.068Z,8.52
2023-02-22T21:25:59.801Z,8.49
2023-02-22T21:28:16.190Z,8.50
2023-02-22T21:30:32.840Z,8.49
2023-02-22T21:32:49.688Z,8.45
2023-02-22T21:35:06.287Z,8.43
2023-02-22T21:37:22.644Z,8.41
2023-02-22T21:39:38.995Z,8.45
2023-02-22T21:41:55.788Z,8.44
2023-02-22T21:44:12.504Z,8.43
2023-02-22T21:46:29.260Z,8.43
2023-02-22T21:48:45.773Z,8.47
2023-02-22T21:51:02.265Z,8.49
2023-02-22T21:53:18.985Z,8.46
2023-02-22T21:55:35.283Z,8.44
2023-02-22T21:57:52.214Z,8.44
2023-02-22T22:00:08.998Z,8.43
2023-02-22T22:02:25.551Z,8.42
2023-02-22T22:04:42.380Z,8.43
2023-02-22T22:06:59.005Z,8.42
2023-02-22T22:09:15.777Z,8.46
2023-02-22T22:11:33.451Z,8.46
2023-02-22T22:13:50.606Z,8.47
2023-02-22T22:16:07.755Z,8.45
2023-02-22T22:18:27.684Z,8.42
2023-02-22T22:20:45.067Z,8.40
2023-02-22T22:23:02.508Z,8.39
2023-02-22T22:25:19.059Z,8.41
2023-02-22T22:27:35.830Z,8.40
2023-02-22T22:29:52.210Z,8.37
2023-02-22T22:32:09.646Z,8.37
2023-02-22T22:34:26.249Z,8.36
2023-02-22T22:36:42.998Z,8.34
2023-02-22T22:39:00.048Z,8.35
2023-02-22T22:41:18.069Z,8.36
2023-02-22T22:43:34.591Z,8.34
2023-02-22T22:45:51.296Z,8.35
2023-02-22T22:48:07.634Z,8.37
2023-02-22T22:50:24.544Z,8.37
2023-02-22T22:52:41.123Z,8.36
2023-02-22T22:54:57.549Z,8.34
2023-02-22T22:57:13.877Z,8.30
2023-02-22T22:59:30.642Z,8.30
2023-02-22T23:01:47.457Z,8.29
2023-02-22T23:04:04.286Z,8.27
2023-02-22T23:06:20.664Z,8.27
2023-02-22T23:08:37.062Z,8.26
2023-02-22T23:10:53.576Z,8.27
2023-02-22T23:13:09.941Z,8.26
2023-02-22T23:15:26.303Z,8.30
2023-02-22T23:17:42.982Z,8.31
2023-02-22T23:19:59.303Z,8.29
2023-02-22T23:22:18.167Z,8.28
2023-02-22T23:24:34.597Z,8.28
2023-02-22T23:26:51.328Z,8.27
2023-02-22T23:29:07.926Z,8.24
2023-02-22T23:31:24.690Z,8.24
2023-02-22T23:33:41.512Z,8.23
2023-02-22T23:35:58.068Z,8.23
2023-02-22T23:38:14.798Z,8.24
2023-02-22T23:40:31.161Z,8.24
2023-02-22T23:42:47.650Z,8.22
2023-02-22T23:45:04.426Z,8.19
2023-02-22T23:47:21.053Z,8.19
2023-02-22T23:49:37.599Z,8.18
2023-02-22T23:51:54.145Z,8.18
2023-02-22T23:54:10.567Z,8.16
2023-02-22T23:56:27.123Z,8.16
2023-02-22T23:58:43.821Z,8.14
